sensor_id;sensor_type;location;lat;lon;timestamp;temperature;humidity
19864;DHT22;10094;48.820;9.226;2023-08-20T00:00:24;24.20;99.90
19864;DHT22;10094;48.820;9.226;2023-08-20T00:07:07;24.10;99.90
19864;DHT22;10094;48.820;9.226;2023-08-20T00:13:50;23.80;99.90
19864;DHT22;10094;48.820;9.226;2023-08-20T00:20:33;23.70;99.90
19864;DHT22;10094;48.820;9.226;2023-08-20T00:27:16;23.80;99.90
19864;DHT22;10094;48.820;9.226;2023-08-20T00:33:58;24.20;99.90
19864;DHT22;10094;48.820;9.226;2023-08-20T00:40:49;24.10;99.90
19864;DHT22;10094;48.820;9.226;2023-08-20T00:47:32;24.00;99.90
19864;DHT22;10094;48.820;9.226;2023-08-20T00:54:15;23.90;99.90
19864;DHT22;10094;48.820;9.226;2023-08-20T01:00:58;23.70;99.90
19864;DHT22;10094;48.820;9.226;2023-08-20T01:08:05;23.70;99.90
19864;DHT22;10094;48.820;9.226;2023-08-20T01:14:51;23.60;99.90
19864;DHT22;10094;48.820;9.226;2023-08-20T01:22:05;23.40;99.90
19864;DHT22;10094;48.820;9.226;2023-08-20T01:28:55;23.40;99.90
19864;DHT22;10094;48.820;9.226;2023-08-20T01:35:40;23.30;99.90
19864;DHT22;10094;48.820;9.226;2023-08-20T01:42:32;23.40;99.90
19864;DHT22;10094;48.820;9.226;2023-08-20T01:49:14;23.30;99.90
19864;DHT22;10094;48.820;9.226;2023-08-20T01:55:57;23.10;99.90
19864;DHT22;10094;48.820;9.226;2023-08-20T02:02:40;23.00;99.90
19864;DHT22;10094;48.820;9.226;2023-08-20T02:09:23;22.80;99.90
19864;DHT22;10094;48.820;9.226;2023-08-20T02:16:06;22.80;99.90
19864;DHT22;10094;48.820;9.226;2023-08-20T02:22:50;22.70;99.90
19864;DHT22;10094;48.820;9.226;2023-08-20T02:29:32;22.60;99.90
19864;DHT22;10094;48.820;9.226;2023-08-20T02:36:15;22.60;99.90
19864;DHT22;10094;48.820;9.226;2023-08-20T02:42:58;22.70;99.90
19864;DHT22;10094;48.820;9.226;2023-08-20T02:49:40;22.80;99.90
19864;DHT22;10094;48.820;9.226;2023-08-20T02:56:23;22.80;99.90
19864;DHT22;10094;48.820;9.226;2023-08-20T03:03:05;22.60;99.90
19864;DHT22;10094;48.820;9.226;2023-08-20T03:09:52;22.50;99.90
19864;DHT22;10094;48.820;9.226;2023-08-20T03:16:34;22.40;99.90
19864;DHT22;10094;48.820;9.226;2023-08-20T03:23:17;22.30;99.90
19864;DHT22;10094;48.820;9.226;2023-08-20T03:30:00;22.30;99.90
19864;DHT22;10094;48.820;9.226;2023-08-20T03:36:43;22.30;99.90
19864;DHT22;10094;48.820;9.226;2023-08-20T03:43:26;22.30;99.90
19864;DHT22;10094;48.820;9.226;2023-08-20T03:50:09;22.20;99.90
19864;DHT22;10094;48.820;9.226;2023-08-20T03:56:52;22.20;99.90
19864;DHT22;10094;48.820;9.226;2023-08-20T04:03:34;22.20;99.90
19864;DHT22;10094;48.820;9.226;2023-08-20T04:10:17;22.20;99.90
19864;DHT22;10094;48.820;9.226;2023-08-20T04:16:59;22.20;99.90
19864;DHT22;10094;48.820;9.226;2023-08-20T04:23:42;22.20;99.90
19864;DHT22;10094;48.820;9.226;2023-08-20T04:30:25;22.10;99.90
19864;DHT22;10094;48.820;9.226;2023-08-20T04:37:09;22.10;99.90
19864;DHT22;10094;48.820;9.226;2023-08-20T04:43:52;22.20;99.90
19864;DHT22;10094;48.820;9.226;2023-08-20T04:50:37;22.20;99.90
19864;DHT22;10094;48.820;9.226;2023-08-20T04:57:20;22.40;99.90
19864;DHT22;10094;48.820;9.226;2023-08-20T05:04:04;22.20;99.90
19864;DHT22;10094;48.820;9.226;2023-08-20T05:10:47;22.50;99.90
19864;DHT22;10094;48.820;9.226;2023-08-20T05:17:29;22.70;99.90
19864;DHT22;10094;48.820;9.226;2023-08-20T05:24:13;23.00;99.90
19864;DHT22;10094;48.820;9.226;2023-08-20T05:30:56;22.90;99.90
19864;DHT22;10094;48.820;9.226;2023-08-20T05:37:40;23.00;99.90
19864;DHT22;10094;48.820;9.226;2023-08-20T05:44:23;23.60;99.90
19864;DHT22;10094;48.820;9.226;2023-08-20T05:51:05;24.40;99.90
19864;DHT22;10094;48.820;9.226;2023-08-20T05:57:48;25.20;99.90
19864;DHT22;10094;48.820;9.226;2023-08-20T06:04:31;26.80;99.90
19864;DHT22;10094;48.820;9.226;2023-08-20T06:11:13;28.50;99.90
19864;DHT22;10094;48.820;9.226;2023-08-20T06:17:56;29.20;99.90
19864;DHT22;10094;48.820;9.226;2023-08-20T06:24:38;31.50;99.90
19864;DHT22;10094;48.820;9.226;2023-08-20T06:31:21;32.80;98.60
19864;DHT22;10094;48.820;9.226;2023-08-20T06:38:04;33.80;96.40
19864;DHT22;10094;48.820;9.226;2023-08-20T06:44:46;33.20;97.50
19864;DHT22;10094;48.820;9.226;2023-08-20T06:51:29;32.70;98.20
19864;DHT22;10094;48.820;9.226;2023-08-20T06:58:12;32.80;97.90
19864;DHT22;10094;48.820;9.226;2023-08-20T07:04:54;34.40;95.50
19864;DHT22;10094;48.820;9.226;2023-08-20T07:11:37;34.70;94.40
19864;DHT22;10094;48.820;9.226;2023-08-20T07:18:19;34.70;95.70
19864;DHT22;10094;48.820;9.226;2023-08-20T07:25:02;35.60;94.10
19864;DHT22;10094;48.820;9.226;2023-08-20T07:31:45;35.70;93.30
19864;DHT22;10094;48.820;9.226;2023-08-20T07:38:28;35.80;93.40
19864;DHT22;10094;48.820;9.226;2023-08-20T07:45:10;36.50;92.10
19864;DHT22;10094;48.820;9.226;2023-08-20T07:51:53;35.80;92.90
19864;DHT22;10094;48.820;9.226;2023-08-20T07:58:36;35.70;93.20
19864;DHT22;10094;48.820;9.226;2023-08-20T08:05:19;35.40;93.50
19864;DHT22;10094;48.820;9.226;2023-08-20T08:12:02;36.90;92.10
19864;DHT22;10094;48.820;9.226;2023-08-20T08:18:45;38.00;91.50
19864;DHT22;10094;48.820;9.226;2023-08-20T08:25:28;36.90;91.70
19864;DHT22;10094;48.820;9.226;2023-08-20T08:32:11;38.30;90.40
19864;DHT22;10094;48.820;9.226;2023-08-20T08:38:54;39.50;89.50
19864;DHT22;10094;48.820;9.226;2023-08-20T08:45:36;41.60;86.00
19864;DHT22;10094;48.820;9.226;2023-08-20T08:52:20;41.80;83.60
19864;DHT22;10094;48.820;9.226;2023-08-20T08:59:03;41.50;82.60
19864;DHT22;10094;48.820;9.226;2023-08-20T09:05:54;41.40;82.50
19864;DHT22;10094;48.820;9.226;2023-08-20T09:12:37;38.40;84.10
19864;DHT22;10094;48.820;9.226;2023-08-20T09:19:19;38.40;86.90
19864;DHT22;10094;48.820;9.226;2023-08-20T09:26:04;41.20;83.00
19864;DHT22;10094;48.820;9.226;2023-08-20T09:33:03;41.70;82.40
19864;DHT22;10094;48.820;9.226;2023-08-20T09:39:46;39.30;83.00
19864;DHT22;10094;48.820;9.226;2023-08-20T09:46:31;40.50;81.90
19864;DHT22;10094;48.820;9.226;2023-08-20T09:53:26;39.60;81.90
19864;DHT22;10094;48.820;9.226;2023-08-20T10:00:10;39.10;81.80
19864;DHT22;10094;48.820;9.226;2023-08-20T10:06:58;41.60;79.30
19864;DHT22;10094;48.820;9.226;2023-08-20T10:13:41;42.10;78.10
19864;DHT22;10094;48.820;9.226;2023-08-20T10:20:24;41.50;76.20
19864;DHT22;10094;48.820;9.226;2023-08-20T10:27:11;40.60;77.10
19864;DHT22;10094;48.820;9.226;2023-08-20T10:33:57;41.60;76.00
19864;DHT22;10094;48.820;9.226;2023-08-20T10:40:55;41.00;75.60
19864;DHT22;10094;48.820;9.226;2023-08-20T10:54:25;38.60;76.80
19864;DHT22;10094;48.820;9.226;2023-08-20T11:01:23;37.50;77.40
19864;DHT22;10094;48.820;9.226;2023-08-20T11:08:06;35.70;80.30
19864;DHT22;10094;48.820;9.226;2023-08-20T11:14:50;35.40;80.50
19864;DHT22;10094;48.820;9.226;2023-08-20T11:21:32;34.30;82.20
19864;DHT22;10094;48.820;9.226;2023-08-20T11:28:16;34.20;82.70
19864;DHT22;10094;48.820;9.226;2023-08-20T11:34:59;34.20;82.40
19864;DHT22;10094;48.820;9.226;2023-08-20T11:41:43;34.30;82.10
19864;DHT22;10094;48.820;9.226;2023-08-20T11:48:26;34.10;81.80
19864;DHT22;10094;48.820;9.226;2023-08-20T11:55:08;34.10;83.20
19864;DHT22;10094;48.820;9.226;2023-08-20T12:01:57;34.30;81.80
19864;DHT22;10094;48.820;9.226;2023-08-20T12:08:40;33.20;82.90
19864;DHT22;10094;48.820;9.226;2023-08-20T12:15:23;33.50;83.50
19864;DHT22;10094;48.820;9.226;2023-08-20T12:22:06;34.00;83.30
19864;DHT22;10094;48.820;9.226;2023-08-20T12:28:49;33.10;83.50
19864;DHT22;10094;48.820;9.226;2023-08-20T12:35:32;33.30;82.60
19864;DHT22;10094;48.820;9.226;2023-08-20T12:42:14;33.60;83.00
19864;DHT22;10094;48.820;9.226;2023-08-20T12:48:57;33.50;82.30
19864;DHT22;10094;48.820;9.226;2023-08-20T12:55:39;33.60;82.40
19864;DHT22;10094;48.820;9.226;2023-08-20T13:02:22;33.30;83.10
19864;DHT22;10094;48.820;9.226;2023-08-20T13:09:06;33.30;81.80
19864;DHT22;10094;48.820;9.226;2023-08-20T13:15:52;33.60;81.00
19864;DHT22;10094;48.820;9.226;2023-08-20T13:22:35;33.40;81.20
19864;DHT22;10094;48.820;9.226;2023-08-20T13:29:18;34.10;80.30
19864;DHT22;10094;48.820;9.226;2023-08-20T13:36:01;34.10;80.90
19864;DHT22;10094;48.820;9.226;2023-08-20T13:42:44;33.90;82.00
19864;DHT22;10094;48.820;9.226;2023-08-20T13:49:26;34.00;82.60
19864;DHT22;10094;48.820;9.226;2023-08-20T13:56:09;34.20;83.60
19864;DHT22;10094;48.820;9.226;2023-08-20T14:02:51;33.90;84.40
19864;DHT22;10094;48.820;9.226;2023-08-20T14:09:34;33.80;85.90
19864;DHT22;10094;48.820;9.226;2023-08-20T14:16:18;34.40;86.20
19864;DHT22;10094;48.820;9.226;2023-08-20T14:23:01;34.20;86.70
19864;DHT22;10094;48.820;9.226;2023-08-20T14:29:43;33.80;85.30
19864;DHT22;10094;48.820;9.226;2023-08-20T14:36:26;34.00;83.60
19864;DHT22;10094;48.820;9.226;2023-08-20T14:43:09;33.80;84.80
19864;DHT22;10094;48.820;9.226;2023-08-20T14:49:51;34.10;85.60
19864;DHT22;10094;48.820;9.226;2023-08-20T14:56:34;33.90;87.10
19864;DHT22;10094;48.820;9.226;2023-08-20T15:03:17;33.90;86.20
19864;DHT22;10094;48.820;9.226;2023-08-20T15:09:59;33.90;86.00
19864;DHT22;10094;48.820;9.226;2023-08-20T15:16:42;33.50;85.60
19864;DHT22;10094;48.820;9.226;2023-08-20T15:23:26;33.30;84.40
19864;DHT22;10094;48.820;9.226;2023-08-20T15:30:09;33.40;84.50
19864;DHT22;10094;48.820;9.226;2023-08-20T15:36:52;33.80;82.90
19864;DHT22;10094;48.820;9.226;2023-08-20T15:43:34;33.60;81.90
19864;DHT22;10094;48.820;9.226;2023-08-20T15:50:17;33.40;82.10
19864;DHT22;10094;48.820;9.226;2023-08-20T15:57:00;33.30;82.50
19864;DHT22;10094;48.820;9.226;2023-08-20T16:03:43;33.10;83.40
19864;DHT22;10094;48.820;9.226;2023-08-20T16:10:26;33.20;83.60
19864;DHT22;10094;48.820;9.226;2023-08-20T16:17:09;33.20;83.50
19864;DHT22;10094;48.820;9.226;2023-08-20T16:23:52;33.10;83.50
19864;DHT22;10094;48.820;9.226;2023-08-20T16:30:36;33.20;83.00
19864;DHT22;10094;48.820;9.226;2023-08-20T16:37:18;33.10;82.00
19864;DHT22;10094;48.820;9.226;2023-08-20T16:44:02;33.20;83.00
19864;DHT22;10094;48.820;9.226;2023-08-20T16:50:45;33.10;82.80
19864;DHT22;10094;48.820;9.226;2023-08-20T16:57:28;33.00;84.40
19864;DHT22;10094;48.820;9.226;2023-08-20T17:04:11;32.80;84.50
19864;DHT22;10094;48.820;9.226;2023-08-20T17:10:53;32.70;85.40
19864;DHT22;10094;48.820;9.226;2023-08-20T17:17:37;32.70;85.60
19864;DHT22;10094;48.820;9.226;2023-08-20T17:24:20;32.70;86.00
19864;DHT22;10094;48.820;9.226;2023-08-20T17:31:03;32.70;86.30
19864;DHT22;10094;48.820;9.226;2023-08-20T17:37:46;32.60;87.10
19864;DHT22;10094;48.820;9.226;2023-08-20T17:44:28;32.50;87.80
19864;DHT22;10094;48.820;9.226;2023-08-20T17:51:11;32.40;88.50
19864;DHT22;10094;48.820;9.226;2023-08-20T17:57:55;32.20;89.40
19864;DHT22;10094;48.820;9.226;2023-08-20T18:04:37;32.10;90.50
19864;DHT22;10094;48.820;9.226;2023-08-20T18:11:20;31.80;91.50
19864;DHT22;10094;48.820;9.226;2023-08-20T18:18:03;31.80;92.00
19864;DHT22;10094;48.820;9.226;2023-08-20T18:24:45;31.70;92.40
19864;DHT22;10094;48.820;9.226;2023-08-20T18:31:28;31.50;93.50
19864;DHT22;10094;48.820;9.226;2023-08-20T18:38:36;31.20;94.70
19864;DHT22;10094;48.820;9.226;2023-08-20T18:45:21;31.00;95.50
19864;DHT22;10094;48.820;9.226;2023-08-20T18:52:04;30.70;96.80
19864;DHT22;10094;48.820;9.226;2023-08-20T18:58:50;30.30;98.60
19864;DHT22;10094;48.820;9.226;2023-08-20T19:05:33;30.00;99.90
19864;DHT22;10094;48.820;9.226;2023-08-20T19:12:16;29.70;99.90
19864;DHT22;10094;48.820;9.226;2023-08-20T19:18:59;29.70;99.90
19864;DHT22;10094;48.820;9.226;2023-08-20T19:25:42;29.40;99.90
19864;DHT22;10094;48.820;9.226;2023-08-20T19:32:25;29.10;99.90
19864;DHT22;10094;48.820;9.226;2023-08-20T19:39:08;28.80;99.90
19864;DHT22;10094;48.820;9.226;2023-08-20T19:45:53;28.40;99.90
19864;DHT22;10094;48.820;9.226;2023-08-20T19:52:37;28.30;99.90
19864;DHT22;10094;48.820;9.226;2023-08-20T19:59:20;28.30;99.90
19864;DHT22;10094;48.820;9.226;2023-08-20T20:06:03;28.20;99.90
19864;DHT22;10094;48.820;9.226;2023-08-20T20:12:49;28.10;99.90
19864;DHT22;10094;48.820;9.226;2023-08-20T20:19:32;28.00;99.90
19864;DHT22;10094;48.820;9.226;2023-08-20T20:26:15;28.00;99.90
19864;DHT22;10094;48.820;9.226;2023-08-20T20:32:58;28.00;99.90
19864;DHT22;10094;48.820;9.226;2023-08-20T20:39:41;27.90;99.90
19864;DHT22;10094;48.820;9.226;2023-08-20T20:46:24;27.80;99.90
19864;DHT22;10094;48.820;9.226;2023-08-20T20:53:07;27.60;99.90
19864;DHT22;10094;48.820;9.226;2023-08-20T20:59:49;27.60;99.90
19864;DHT22;10094;48.820;9.226;2023-08-20T21:06:32;27.50;99.90
19864;DHT22;10094;48.820;9.226;2023-08-20T21:13:15;27.40;99.90
19864;DHT22;10094;48.820;9.226;2023-08-20T21:19:58;27.40;99.90
19864;DHT22;10094;48.820;9.226;2023-08-20T21:26:41;27.30;99.90
19864;DHT22;10094;48.820;9.226;2023-08-20T21:33:24;27.30;99.90
19864;DHT22;10094;48.820;9.226;2023-08-20T21:40:07;27.30;99.90
19864;DHT22;10094;48.820;9.226;2023-08-20T21:46:53;27.30;99.90
19864;DHT22;10094;48.820;9.226;2023-08-20T21:53:37;27.30;99.90
19864;DHT22;10094;48.820;9.226;2023-08-20T22:00:19;27.20;99.90
19864;DHT22;10094;48.820;9.226;2023-08-20T22:07:02;27.10;99.90
19864;DHT22;10094;48.820;9.226;2023-08-20T22:13:45;27.10;99.90
19864;DHT22;10094;48.820;9.226;2023-08-20T22:20:27;27.10;99.90
19864;DHT22;10094;48.820;9.226;2023-08-20T22:27:10;27.00;99.90
19864;DHT22;10094;48.820;9.226;2023-08-20T22:33:53;27.00;99.90
19864;DHT22;10094;48.820;9.226;2023-08-20T22:40:38;27.00;99.90
19864;DHT22;10094;48.820;9.226;2023-08-20T22:47:22;27.00;99.90
19864;DHT22;10094;48.820;9.226;2023-08-20T22:54:04;26.90;99.90
19864;DHT22;10094;48.820;9.226;2023-08-20T23:00:47;26.90;99.90
19864;DHT22;10094;48.820;9.226;2023-08-20T23:07:30;26.80;99.90
19864;DHT22;10094;48.820;9.226;2023-08-20T23:14:14;26.70;99.90
19864;DHT22;10094;48.820;9.226;2023-08-20T23:21:01;26.60;99.90
19864;DHT22;10094;48.820;9.226;2023-08-20T23:27:44;26.60;99.90
19864;DHT22;10094;48.820;9.226;2023-08-20T23:34:27;26.50;99.90
19864;DHT22;10094;48.820;9.226;2023-08-20T23:41:10;26.20;99.90
19864;DHT22;10094;48.820;9.226;2023-08-20T23:47:52;26.20;99.90
19864;DHT22;10094;48.820;9.226;2023-08-20T23:54:35;26.10;99.90
